createdAt,value
2018-11-11T00:00:56.525Z,8.1
2018-11-11T00:10:56.215Z,7.5
2018-11-11T00:20:54.073Z,14.9
2018-11-11T00:30:57.086Z,9
2018-11-11T00:40:56.808Z,7.7
2018-11-11T00:50:56.442Z,7
2018-11-11T01:00:54.296Z,12.8
2018-11-11T01:10:53.773Z,9.6
2018-11-11T01:20:54.520Z,8.5
2018-11-11T01:30:54.250Z,8.1
2018-11-11T01:40:54.769Z,9.1
2018-11-11T01:50:57.073Z,8
2018-11-11T02:00:54.881Z,14.8
2018-11-11T02:10:52.667Z,13
2018-11-11T02:20:50.503Z,13.1
2018-11-11T02:30:48.405Z,12
2018-11-11T02:40:46.409Z,12
2018-11-11T02:50:45.901Z,5.4
2018-11-11T03:00:45.563Z,5.1
2018-11-11T03:10:46.271Z,5.9
2018-11-11T03:20:46.008Z,6
2018-11-11T03:30:49.325Z,6.2
2018-11-11T03:40:49.860Z,6.4
2018-11-11T03:50:49.515Z,6.8
2018-11-11T04:00:49.208Z,5.7
2018-11-11T04:10:49.759Z,7.1
2018-11-11T04:20:53.250Z,6.9
2018-11-11T04:30:51.311Z,12.5
2018-11-11T04:40:54.993Z,6.5
2018-11-11T04:50:53.466Z,11.6
2018-11-11T05:00:54.361Z,11.2
2018-11-11T05:10:54.696Z,4.8
2018-11-11T05:20:57.031Z,5.4
2018-11-11T05:30:57.011Z,5.5
2018-11-11T05:40:56.638Z,5.7
2018-11-11T05:50:56.141Z,5.4
2018-11-11T06:00:56.607Z,7.1
2018-11-11T06:10:57.118Z,8.8
2018-11-11T06:20:56.556Z,7.3
2018-11-11T06:30:56.510Z,6.6
2018-11-11T06:40:56.368Z,6.4
2018-11-11T06:50:54.894Z,11.7
2018-11-11T07:00:54.426Z,5.4
2018-11-11T07:10:55.223Z,5.6
2018-11-11T07:20:55.839Z,9.3
2018-11-11T07:30:55.755Z,8.3
2018-11-11T07:40:55.655Z,8.6
2018-11-11T07:50:56.317Z,6.8
2018-11-11T08:00:59.643Z,6.6
2018-11-11T08:10:58.184Z,12.6
2018-11-11T08:20:58.098Z,10.8
2018-11-11T08:30:58.375Z,10.3
2018-11-11T08:41:02.027Z,6.8
2018-11-11T08:51:01.618Z,5.4
2018-11-11T09:00:59.736Z,9.7
2018-11-11T09:11:00.316Z,3.5
2018-11-11T09:21:02.303Z,3.1
2018-11-11T09:31:06.348Z,3.3
2018-11-11T09:41:05.413Z,8.2
2018-11-11T09:51:10.428Z,2.7
2018-11-11T10:01:10.866Z,6.7
2018-11-11T10:11:12.723Z,6.6
2018-11-11T10:21:13.788Z,2.4
2018-11-11T10:31:13.330Z,6.4
2018-11-11T10:41:16.060Z,3.1
2018-11-11T10:51:16.246Z,3.6
2018-11-11T11:01:16.273Z,3.9
2018-11-11T11:11:16.173Z,3.9
2018-11-11T11:21:17.977Z,4
2018-11-11T11:31:19.086Z,7.8
2018-11-11T11:41:22.968Z,7.3
2018-11-11T11:51:23.972Z,2.5
2018-11-11T12:01:27.572Z,2.2
2018-11-11T12:02:36.761Z,3.4
2018-11-11T12:12:40.915Z,2.3
2018-11-11T12:22:43.311Z,7.3
2018-11-11T12:32:43.997Z,2.4
2018-11-11T12:42:47.252Z,1.4
2018-11-11T12:52:48.240Z,1.9
2018-11-11T13:02:46.511Z,5.6
2018-11-11T13:12:47.700Z,2.1
2018-11-11T13:22:52.879Z,1.8
2018-11-11T13:32:52.774Z,2.1
2018-11-11T13:42:53.206Z,2.8
2018-11-11T13:52:55.284Z,2.3
2018-11-11T14:02:55.292Z,2.7
2018-11-11T14:12:55.905Z,2
2018-11-11T14:22:55.897Z,6.5
2018-11-11T14:32:59.203Z,2.3
2018-11-11T14:43:00.088Z,2.4
2018-11-11T14:53:00.156Z,5.6
2018-11-11T15:03:01.966Z,2
2018-11-11T15:13:02.760Z,2.2
2018-11-11T15:23:06.360Z,1.9
2018-11-11T15:33:08.333Z,2.8
2018-11-11T15:43:08.542Z,3.2
2018-11-11T15:53:08.625Z,6.1
2018-11-11T16:03:08.287Z,8.3
2018-11-11T16:13:08.136Z,6.7
2018-11-11T16:23:11.816Z,6.4
2018-11-11T16:33:13.817Z,8.6
2018-11-11T16:43:17.510Z,11.8
2018-11-11T16:53:32.579Z,12.8
2018-11-11T17:03:33.938Z,10.1
2018-11-11T17:13:36.748Z,8.6
2018-11-11T17:23:41.279Z,7.4
2018-11-11T17:33:46.217Z,9.1
2018-11-11T17:43:47.960Z,9.5
2018-11-11T17:53:48.633Z,21.8
2018-11-11T18:03:58.645Z,19.2
2018-11-11T18:14:00.825Z,29
2018-11-11T18:24:05.337Z,30.9
2018-11-11T18:34:12.354Z,20.1
2018-11-11T18:44:14.580Z,16.8
2018-11-11T18:54:14.937Z,20.6
2018-11-11T19:04:17.715Z,12.5
2018-11-11T19:14:21.352Z,9.7
2018-11-11T19:24:27.000Z,9.1
2018-11-11T19:34:31.006Z,9.3
2018-11-11T19:44:34.931Z,12.6
2018-11-11T19:54:35.159Z,14.1
2018-11-11T20:04:33.582Z,17.8
2018-11-11T20:14:34.372Z,10.4
2018-11-11T20:24:34.583Z,10.5
2018-11-11T20:34:42.449Z,8.5
2018-11-11T20:44:43.401Z,10.2
2018-11-11T20:54:43.179Z,9.9
2018-11-11T21:04:43.695Z,8.2
2018-11-11T21:14:44.678Z,6.8
2018-11-11T21:24:46.326Z,5.9
2018-11-11T21:34:46.584Z,11.9
2018-11-11T21:45:03.056Z,8.4
2018-11-11T21:55:04.738Z,14.9
2018-11-11T22:05:26.586Z,6
2018-11-11T22:16:07.053Z,4.9
2018-11-11T22:26:06.859Z,5
2018-11-11T22:36:04.912Z,13.7
2018-11-11T22:46:04.848Z,7
2018-11-11T22:56:05.107Z,5.3
2018-11-11T23:06:04.630Z,5
2018-11-11T23:16:04.409Z,4.8
2018-11-11T23:26:02.381Z,11.5
2018-11-11T23:36:02.862Z,5.6
2018-11-11T23:46:02.364Z,5.2
2018-11-11T23:56:00.212Z,12.3
